Tiempo atmosférico en la estación meteorológica de Rasquera, Tarragona (186 m.)



Fecha
DESCASC
Temp. máxima en grados centígrados (hora)
DESCASC
Temp. mínima en grados centígrados (hora)
DESCASC
Temp. media en grados centígrados
DESCASC
Racha de viento máxima en m/sg (hora)
DESCASC
Velocidad máxima media en intervalos de 10 minutos(hora)
DESCASC
Precipitaciones diarias en mm
DESCASC
Precipitaciones de 00:00 a 06:00 en mm
DESCASC
Precipitaciones de 06:00 a 12:00 en mm
DESCASC
Precipitaciones de 12:00 a 18:00 en mm
DESCASC
Precipitaciones de 18:00 a 24:00 en mm
DESCASC
31-03-2020 6.8 (16:00) 4.1 (07:00) 5.5 6.11 (00:30) 3.33 (00:30) 4.6 0.4 0.6 2.2 1.4
29-03-2020 21 (16:30) 9.3 (00:00) 15.2 12.22 (22:50) 6.39 (13:50) 0 0 0 0 0
28-03-2020 19.3 (17:40) 8.2 (00:00) 13.7 7.5 (14:10) 3.33 (12:00) 0 0 0 0 0
27-03-2020 15.8 (17:40) 3.3 (00:00) 9.6 6.67 (12:30) 4.17 (13:00) 0 0 0 0 0
26-03-2020 13.9 (13:10) 4.7 (00:00) 9.3 8.61 (14:50) 5.56 (15:00) 3.2 0 0 3 0.2
25-03-2020 10.7 (15:10) 3.9 (00:00) 7.3 5.83 (15:20) 3.33 (15:20) 0.6 0.6 0 0 0
24-03-2020 14.8 (12:20) 10.3 (00:00) 12.6 9.17 (13:40) 6.11 (13:40) 0.4 0.4 0 0 0
23-03-2020 16.2 (13:30) 9.2 (00:00) 12.7 9.17 (13:40) 4.72 (14:10) 0.6 0.2 0.2 0.2 0
22-03-2020 13.8 (12:40) 4.2 (02:10) 9 6.39 (12:50) 3.61 (12:50) 1.2 0 0 1.2 0
21-03-2020 17.8 (14:20) 3.2 (00:00) 10.5 9.72 (14:10) 5.28 (15:50) 0 0 0 0 0
20-03-2020 17.2 (14:40) 5.8 (00:00) 11.5 8.61 (14:50) 5 (13:50) 0 0 0 0 0
19-03-2020 17.2 (14:20) 4.9 (00:00) 11.1 8.61 (16:00) 4.72 (12:40) 0 0 0 0 0
18-03-2020 18.1 (15:50) 6.9 (00:00) 12.5 6.67 (16:10) 4.17 (14:50) 0 0 0 0 0
17-03-2020 16.3 (16:10) 9.4 (00:00) 12.8 12.22 (01:20) 7.22 (01:20) 0 0 0 0 0
16-03-2020 15 (16:10) 12.4 (00:00) 13.7 15.28 (18:10) 8.33 (18:10) 4.4 0.4 0.2 3.6 0.2
15-03-2020 17.9 (14:20) 6.8 (00:00) 12.3 12.22 (14:20) 6.67 (14:10) 0 0 0 0 0
14-03-2020 20.6 (16:10) 9.6 (00:00) 15.1 9.72 (10:10) 5.56 (09:30) 0 0 0 0 0
13-03-2020 19.2 (15:30) 8.7 (03:50) 14 7.78 (15:20) 4.72 (16:30) 0 0 0 0 0
12-03-2020 23.2 (14:20) 5.5 (00:00) 14.4 8.89 (15:40) 6.11 (15:10) 0 0 0 0 0
11-03-2020 25.9 (15:10) 7.3 (00:00) 16.6 7.78 (18:30) 5 (17:00) 0 0 0 0 0
10-03-2020 21.9 (16:00) 9 (00:00) 15.4 11.94 (02:00) 6.39 (02:00) 0 0 0 0 0
09-03-2020 17.2 (15:50) 7.4 (00:00) 12.3 20.28 (16:10) 10.56 (12:00) 0 0 0 0 0
08-03-2020 20.3 (15:30) 5.6 (00:00) 12.9 10.28 (11:50) 6.11 (14:40) 0 0 0 0 0
07-03-2020 18.3 (16:30) 7.2 (00:00) 12.7 15.56 (00:20) 7.5 (02:40) 0 0 0 0 0
06-03-2020 13.8 (13:20) 7.6 (00:00) 10.7 22.78 (20:20) 10.83 (14:20) 0 0 0 0 0
05-03-2020 22.4 (12:30) 8.3 (00:00) 15.3 18.33 (14:50) 7.5 (16:50) 0.2 0 0 0.2 0
04-03-2020 22 (16:20) 11.6 (06:30) 16.8 13.89 (02:40) 6.94 (00:50) 0 0 0 0 0
03-03-2020 20.1 (16:30) 6.4 (00:00) 13.3 18.33 (19:00) 9.72 (16:20) 0 0 0 0 0
02-03-2020 17 (01:10) 8.8 (00:00) 12.9 23.61 (08:30) 9.72 (12:00) 1.4 0 1.4 0 0

Gráficas

Temp. máximas Temp. mínimas Temp. medias Precipitaciones Rachas de viento máximas Velocidades máximas media en intervalos de 10 minutos

Datos horarios

Fecha y hora oficial Temperatura (ºC) Velocidad del viento (km/h) Dirección del viento Racha (km/h) Dirección de racha Precipitación (mm) Presión (hPa) Tendencia (hPa) Humedad (%)
2020-03-31 23:00:00 6.1 0 Calma 5 Sur 0 -- -- 96
2020-03-31 22:00:00 6 3 Este 6 Este 0 -- -- 96
2020-03-31 21:00:00 6 0 Calma 5 Este 0.2 -- -- 96
2020-03-31 20:00:00 6 3 Sudeste 5 Sudeste 0.2 -- -- 97
2020-03-31 19:00:00 6.1 2 Nordeste 6 Nordeste 1 -- -- 96
2020-03-31 18:00:00 6.4 3 Nordeste 5 Nordeste 0.4 -- -- 96
2020-03-31 17:00:00 6.5 0 Calma 6 Nordeste 0.2 -- -- 96
2020-03-31 16:00:00 6.8 3 Oeste 8 Oeste 0.6 -- -- 95
2020-03-31 15:00:00 6.3 4 Oeste 11 Noroeste 0 -- -- 95
2020-03-31 14:00:00 5.5 6 Noroeste 15 Norte 0.8 -- -- 94
2020-03-31 13:00:00 5.8 3 Nordeste 9 Norte 0.2 -- -- 91
2020-03-31 12:00:00 5.5 3 Nordeste 7 Norte 0 -- -- 90
2020-03-31 11:00:00 5.1 0 Calma 9 Norte 0 -- -- 91
2020-03-31 10:00:00 4.7 4 Norte 10 Norte 0 -- -- 93
2020-03-31 09:00:00 4.4 0 Calma 7 Oeste 0.2 -- -- 95
2020-03-31 08:00:00 4.1 5 Oeste 9 Norte 0 -- -- 95
2020-03-31 07:00:00 4.1 3 Noroeste 8 Noroeste 0.4 -- -- 95
2020-03-31 06:00:00 4.3 4 Noroeste 8 Noroeste 0.4 -- -- 93
2020-03-31 05:00:00 4.7 3 Oeste 12 Oeste 0 -- -- 91
2020-03-31 04:00:00 5.1 5 Noroeste 10 Oeste 0 -- -- 84
2020-03-31 03:00:00 5.2 6 Oeste 17 Oeste 0 -- -- 81
2020-03-31 02:00:00 5.5 8 Oeste 16 Oeste 0 -- -- 80
2020-03-31 01:00:00 6.1 7 Noroeste 22 Noroeste 0 -- -- 73
2020-03-31 00:00:00 6.3 13 Noroeste 21 Noroeste 0 -- -- 71
2020-03-30 23:00:00 5.9 5 Noroeste 8 Noroeste 0 -- -- 81
2020-03-30 22:00:00 5.8 5 Oeste 9 Noroeste 0 -- -- 80
2020-03-30 21:00:00 5.5 6 Oeste 10 Oeste 0 -- -- 82
2020-03-30 20:00:00 5.3 5 Oeste 16 Oeste 0 -- -- 82
2020-03-30 19:00:00 5.4 9 Noroeste 15 Noroeste 0 -- -- 81
2020-03-30 18:00:00 5.5 8 Oeste 16 Norte 0 -- -- 79
2020-03-30 17:00:00 6.2 8 Norte 18 Nordeste 0.2 -- -- 75
2020-03-30 16:00:00 6.2 3 Este 23 Oeste 0 -- -- 71
2020-03-30 15:00:00 6.2 16 Oeste 31 Oeste 0 -- -- 66
2020-03-30 14:00:00 8.7 14 Oeste 32 Oeste 0 -- -- 45
2020-03-30 13:00:00 9.6 20 Oeste 35 Oeste 0 -- -- 40
2020-03-30 12:00:00 9.6 19 Oeste 36 Oeste 0 -- -- 43
2020-03-30 11:00:00 8.5 14 Noroeste 40 Oeste 0 -- -- 49
2020-03-30 10:00:00 7.8 14 Noroeste 35 Noroeste 0 -- -- 55
2020-03-30 09:00:00 8.1 14 Noroeste 30 Oeste 0 -- -- 54
2020-03-30 08:00:00 8.4 21 Noroeste 47 Noroeste 0 -- -- 57
2020-03-30 07:00:00 9.3 19 Oeste 37 Noroeste 0 -- -- 60
2020-03-30 06:00:00 9.8 14 Oeste 29 Noroeste 0 -- -- 61
2020-03-30 05:00:00 10.4 11 Oeste 31 Oeste 0 -- -- 62
2020-03-30 04:00:00 10.9 12 Oeste 34 Oeste 0 -- -- 64
2020-03-30 03:00:00 11.2 9 Oeste 26 Oeste 0 -- -- 63
2020-03-30 02:00:00 11.3 11 Oeste 34 Oeste 0 -- -- 62
2020-03-30 01:00:00 11.7 18 Oeste 38 Oeste 0 -- -- 60
2020-03-30 00:00:00 12.3 13 Oeste 37 Oeste 0 -- -- 58
2020-03-29 23:00:00 13.3 15 Oeste 44 Oeste 0 -- -- 57
2020-03-29 22:00:00 14.7 13 Oeste 31 Oeste 0 -- -- 52
2020-03-29 21:00:00 16.1 14 Oeste 27 Sudoeste 0 -- -- 46
2020-03-29 20:00:00 17.8 11 Oeste 30 Oeste 0 -- -- 38
2020-03-29 19:00:00 19.3 16 Noroeste 35 Oeste 0 -- -- 32
2020-03-29 18:00:00 20.4 15 Oeste 38 Oeste 0 -- -- 31
2020-03-29 17:00:00 20.6 17 Oeste 34 Noroeste 0 -- -- 31
2020-03-29 16:00:00 20.2 18 Noroeste 40 Oeste 0 -- -- 33
2020-03-29 15:00:00 19.7 20 Noroeste 40 Noroeste 0 -- -- 35
2020-03-29 14:00:00 18.8 21 Noroeste 37 Noroeste 0 -- -- 36
2020-03-29 13:00:00 17.6 22 Noroeste 37 Noroeste 0 -- -- 39
2020-03-29 12:00:00 15.9 21 Noroeste 37 Noroeste 0 -- -- 42
2020-03-29 11:00:00 14.8 15 Noroeste 31 Noroeste 0 -- -- 45
2020-03-29 10:00:00 13.4 12 Noroeste 28 Oeste 0 -- -- 52
2020-03-29 09:00:00 10.8 9 Norte 18 Noroeste 0 -- -- 66
2020-03-29 08:00:00 9.4 9 Norte 19 Noroeste 0 -- -- 74
2020-03-29 07:00:00 9.6 5 Noroeste 14 Oeste 0 -- -- 76
2020-03-29 06:00:00 10 8 Noroeste 17 Noroeste 0 -- -- 77
2020-03-29 05:00:00 9.3 5 Oeste 8 Noroeste 0 -- -- 82
2020-03-29 03:00:00 10.5 5 Oeste 8 Noroeste 0 -- -- 78
2020-03-29 01:00:00 10.4 4 Noroeste 8 Noroeste 0 -- -- 80
2020-03-29 00:00:00 9.9 5 Oeste 7 Oeste 0 -- -- 82
2020-03-28 23:00:00 9.6 0 Calma 6 Sudoeste 0 -- -- 84
2020-03-28 22:00:00 10.2 3 Sudoeste 8 Sudoeste 0 -- -- 81
2020-03-28 21:00:00 10.2 5 Sur 6 Sudeste 0 -- -- 81
2020-03-28 20:00:00 12.3 4 Sur 13 Sur 0 -- -- 70
2020-03-28 19:00:00 15.8 9 Sudeste 16 Sudeste 0 -- -- 57
2020-03-28 18:00:00 19 2 Sudeste 6 Norte 0 -- -- 42
2020-03-28 17:00:00 18.5 2 Este 15 Noroeste 0 -- -- 44
2020-03-28 16:00:00 18.8 8 Sudoeste 15 Noroeste 0 -- -- 43
2020-03-28 15:00:00 17.3 7 Norte 27 Noroeste 0 -- -- 47
2020-03-28 14:00:00 17.1 9 Noroeste 20 Noroeste 0 -- -- 48
2020-03-28 13:00:00 15.6 9 Noroeste 21 Norte 0 -- -- 50
2020-03-28 12:00:00 15.1 12 Norte 22 Norte 0 -- -- 59
2020-03-28 11:00:00 13.6 8 Norte 16 Norte 0 -- -- 62
2020-03-28 10:00:00 12.1 9 Norte 14 Norte 0 -- -- 66
2020-03-28 09:00:00 10 0 Calma 5 Oeste 0 -- -- 80
2020-03-28 08:00:00 8.6 3 Oeste 7 Oeste 0 -- -- 84
2020-03-28 07:00:00 8.4 0 Calma 8 Noroeste 0 -- -- 85
2020-03-28 06:00:00 8.4 5 Oeste 7 Oeste 0 -- -- 84
2020-03-28 05:00:00 8.3 0 Calma 6 Oeste 0 -- -- 88
2020-03-28 04:00:00 8.4 4 Oeste 9 Sudoeste 0 -- -- 84
2020-03-28 03:00:00 8.4 3 Norte 9 Norte 0 -- -- 86
2020-03-28 02:00:00 8.7 0 Calma 8 Sur 0 -- -- 84
2020-03-28 01:00:00 9.3 4 Sur 9 Sudeste 0 -- -- 82
2020-03-28 00:00:00 9.7 7 Sudeste 15 Sur 0 -- -- 77
2020-03-27 23:00:00 10.2 10 Sur 14 Sur 0 -- -- 72
2020-03-27 22:00:00 10.3 9 Sudeste 14 Sudeste 0 -- -- 70
2020-03-27 21:00:00 10.5 6 Sudeste 10 Sur 0 -- -- 68
2020-03-27 20:00:00 11.1 6 Sur 12 Sudeste 0 -- -- 69
2020-03-27 19:00:00 13.3 4 Sur 8 Sudeste 0 -- -- 57
2020-03-27 18:00:00 15.2 5 Norte 13 Noroeste 0 -- -- 43
2020-03-27 17:00:00 15.6 4 Norte 14 Noroeste 0 -- -- 41
2020-03-27 16:00:00 14.8 5 Noroeste 17 Norte 0 -- -- 45
2020-03-27 15:00:00 14.4 7 Norte 17 Noroeste 0 -- -- 52
2020-03-27 14:00:00 13.2 8 Noroeste 24 Norte 0 -- -- 55
2020-03-27 13:00:00 12.3 15 Noroeste 24 Norte 0 -- -- 61
2020-03-27 12:00:00 11.1 14 Norte 22 Noroeste 0 -- -- 69
2020-03-27 11:00:00 9.7 9 Norte 15 Noroeste 0 -- -- 82
2020-03-27 10:00:00 5.7 5 Norte 9 Norte 0 -- -- 100
2020-03-27 09:00:00 3.7 3 Norte 8 Norte 0 -- -- 99
2020-03-27 08:00:00 3.3 3 Noroeste 8 Norte 0 -- -- 99
2020-03-27 07:00:00 3.6 3 Norte 9 Norte 0 -- -- 98
2020-03-27 06:00:00 4.3 3 Noroeste 6 Noroeste 0 -- -- 98
2020-03-27 05:00:00 4.4 0 Calma 5 Noroeste 0 -- -- 98
2020-03-27 04:00:00 4.9 4 Noroeste 8 Norte 0 -- -- 98
2020-03-27 03:00:00 5.1 2 Oeste 6 Oeste 0 -- -- 98
2020-03-27 02:00:00 5 3 Oeste 6 Sudoeste 0 -- -- 98
2020-03-27 01:00:00 4.2 0 Calma 4 Sur 0 -- -- 97
2020-03-27 00:00:00 4.8 2 Sudoeste 6 Sudoeste 0 -- -- 97
2020-03-26 23:00:00 5.1 4 Sudeste 6 Sur 0 -- -- 96
2020-03-26 22:00:00 5.6 0 Calma 8 Oeste 0 -- -- 96
2020-03-26 21:00:00 6.1 4 Oeste 6 Oeste 0 -- -- 96
2020-03-26 20:00:00 6.5 2 Este 11 Este 0 -- -- 95
2020-03-26 19:00:00 6.7 3 Noroeste 17 Oeste 0.2 -- -- 93
2020-03-26 18:00:00 6.9 8 Oeste 17 Norte 1.4 -- -- 93
2020-03-26 17:00:00 8 8 Sudeste 27 Sudeste 0.8 -- -- 84
2020-03-26 16:00:00 9.7 10 Sudeste 27 Sudeste 0.4 -- -- 76
2020-03-26 15:00:00 10.2 20 Sudeste 31 Sur 0 -- -- 73
2020-03-26 14:00:00 13 5 Norte 25 Norte 0.4 -- -- 61
2020-03-26 13:00:00 13.3 6 Noroeste 21 Norte 0 -- -- 57
2020-03-26 12:00:00 11.9 11 Nordeste 19 Norte 0 -- -- 63
2020-03-26 11:00:00 10.2 9 Norte 18 Norte 0 -- -- 68
2020-03-26 10:00:00 8.9 11 Norte 17 Norte 0 -- -- 73
2020-03-26 09:00:00 7.9 10 Norte 19 Oeste 0 -- -- 74
2020-03-26 08:00:00 7.7 12 Oeste 21 Noroeste 0 -- -- 72
2020-03-26 07:00:00 7.7 8 Noroeste 23 Oeste 0 -- -- 81
2020-03-26 06:00:00 7.4 3 Noroeste 20 Noroeste 0 -- -- 85
2020-03-26 05:00:00 6.3 0 Calma 8 Oeste 0 -- -- 89
2020-03-26 04:00:00 6.4 6 Oeste 9 Oeste 0 -- -- 86
2020-03-26 03:00:00 6.1 2 Oeste 7 Oeste 0 -- -- 89
2020-03-26 02:00:00 5.9 4 Oeste 6 Oeste 0 -- -- 89
2020-03-26 01:00:00 6 0 Calma 4 Oeste 0 -- -- 89
2020-03-26 00:00:00 5.5 0 Calma 5 Oeste 0 -- -- 94
2020-03-25 23:00:00 4.5 3 Oeste 6 Sudoeste 0 -- -- 94
2020-03-25 22:00:00 4.4 5 Sur 9 Sur 0 -- -- 88
2020-03-25 21:00:00 5.6 5 Sur 12 Sudeste 0 -- -- 85
2020-03-25 20:00:00 7.5 8 Sur 14 Sudeste 0 -- -- 77
2020-03-25 19:00:00 9.6 8 Sudeste 21 Este 0 -- -- 68
2020-03-25 18:00:00 10.6 8 Sudeste 19 Este 0 -- -- 65
2020-03-25 17:00:00 10.4 7 Sudeste 16 Sudeste 0 -- -- 64
2020-03-25 16:00:00 10.4 9 Sudeste 21 Sudeste 0 -- -- 63
2020-03-25 15:00:00 10.2 11 Sudeste 17 Sudeste 0 -- -- 66
2020-03-25 14:00:00 9.9 6 Sur 14 Sudeste 0 -- -- 64
2020-03-25 13:00:00 9.1 7 Este 14 Sur 0 -- -- 65
2020-03-25 12:00:00 8.7 8 Sudeste 17 Sudeste 0 -- -- 70
2020-03-25 11:00:00 8.1 3 Este 13 Norte 0 -- -- 75
2020-03-25 10:00:00 8.1 7 Norte 12 Sudeste 0 -- -- 77
2020-03-25 09:00:00 7.4 8 Sudeste 13 Este 0 -- -- 76
2020-03-25 08:00:00 7.3 4 Noroeste 10 Sudeste 0 -- -- 83
2020-03-25 07:00:00 7.3 6 Sudeste 18 Sudeste 0 -- -- 81
2020-03-25 06:00:00 7.9 8 Sudeste 20 Este 0 -- -- 78
2020-03-25 05:00:00 7.9 8 Sudeste 13 Sudeste 0 -- -- 82
2020-03-25 04:00:00 7.8 5 Sudeste 9 Sudeste 0 -- -- 88
2020-03-25 03:00:00 8 6 Sur 10 Este 0.4 -- -- 89
2020-03-25 02:00:00 8.8 5 Sudeste 18 Este 0.2 -- -- 85
2020-03-25 01:00:00 10.1 8 Este 15 Nordeste 0 -- -- 75
2020-03-25 00:00:00 10.4 8 Sudeste 18 Sudeste 0 -- -- 73
2020-03-24 23:00:00 10.5 6 Este 23 Sudeste 0 -- -- 75
2020-03-24 22:00:00 11 11 Este 24 Sudeste 0 -- -- 73
2020-03-24 21:00:00 11.1 11 Sudeste 21 Sudeste 0 -- -- 76
2020-03-24 20:00:00 11.4 8 Sudeste 17 Sudeste 0 -- -- 74
2020-03-24 19:00:00 11.7 9 Sudeste 26 Sudeste 0 -- -- 74
2020-03-24 18:00:00 12.4 14 Sudeste 28 Sudeste 0 -- -- 72
2020-03-24 17:00:00 13.4 14 Este 30 Este 0 -- -- 62
2020-03-24 16:00:00 13.4 13 Sudeste 27 Este 0 -- -- 61
2020-03-24 15:00:00 13.3 12 Sudeste 28 Sudeste 0 -- -- 59
2020-03-24 14:00:00 13.3 17 Sudeste 33 Sudeste 0 -- -- 67
2020-03-24 13:00:00 13.7 18 Sudeste 29 Sur 0 -- -- 68
2020-03-24 12:00:00 13.7 14 Sudeste 30 Sudeste 0 -- -- 65
2020-03-24 11:00:00 14.1 13 Este 27 Este 0 -- -- 63
2020-03-24 10:00:00 12.8 10 Sudeste 30 Sudeste 0 -- -- 69
2020-03-24 09:00:00 11.9 15 Sudeste 26 Sudeste 0 -- -- 72
2020-03-24 08:00:00 11.6 12 Sudeste 24 Sudeste 0 -- -- 76
2020-03-24 07:00:00 11.2 10 Sur 20 Sudeste 0 -- -- 81
2020-03-24 06:00:00 11 12 Sudeste 21 Sudeste 0 -- -- 83
2020-03-24 05:00:00 11.3 10 Sudeste 27 Sudeste 0 -- -- 83
2020-03-24 04:00:00 11.2 14 Sudeste 22 Sur 0 -- -- 85
2020-03-24 03:00:00 11.2 8 Sur 15 Este 0 -- -- 91
2020-03-24 02:00:00 11.8 4 Este 13 Este 0.4 -- -- 91
2020-03-24 01:00:00 12.6 6 Este 22 Este 0 -- -- 83
2020-03-24 00:00:00 13 8 Este 17 Este 0 -- -- 79
2020-03-23 23:00:00 13.4 8 Este 24 Este 0 -- -- 78
2020-03-23 22:00:00 12.9 8 Sudeste 15 Sudeste 0 -- -- 84
2020-03-23 21:00:00 12.8 8 Sudeste 15 Sudeste 0 -- -- 84
2020-03-23 20:00:00 12.8 7 Sudeste 13 Sudeste 0 -- -- 84
2020-03-23 19:00:00 13.6 7 Sudeste 13 Sudeste 0 -- -- 81
2020-03-23 18:00:00 14.3 6 Este 21 Sudeste 0 -- -- 81
2020-03-23 17:00:00 14.8 11 Este 26 Este 0 -- -- 79
2020-03-23 16:00:00 15.8 16 Sudeste 30 Sudeste 0.2 -- -- 76
2020-03-23 15:00:00 15.4 15 Sudeste 30 Este 0 -- -- 78
2020-03-23 14:00:00 15.6 15 Sudeste 33 Este 0 -- -- 74
2020-03-23 13:00:00 15.9 14 Este 26 Este 0 -- -- 72
2020-03-23 12:00:00 15.8 13 Este 26 Este 0 -- -- 75
2020-03-23 11:00:00 13.5 7 Norte 14 Noroeste 0 -- -- 92
2020-03-23 10:00:00 11.3 3 Norte 6 Oeste 0 -- -- 98
2020-03-23 09:00:00 10.4 0 Calma 5 Norte 0 -- -- 98
2020-03-23 08:00:00 9.8 0 Calma 5 Nordeste 0.2 -- -- 98
2020-03-23 07:00:00 9.4 4 Sur 6 Sur 0 -- -- 97
2020-03-23 06:00:00 9.8 3 Sur 5 Sur 0 -- -- 97
2020-03-23 05:00:00 10.1 0 Calma 4 Este 0 -- -- 97
2020-03-23 04:00:00 10.5 0 Calma 3 Sur 0 -- -- 96
2020-03-23 03:00:00 10.6 0 Calma 3 Oeste 0.2 -- -- 96
2020-03-23 02:00:00 10.5 3 Sur 4 Sur 0 -- -- 94
2020-03-23 01:00:00 10.7 0 Calma 5 Norte 0 -- -- 91
2020-03-23 00:00:00 11.2 2 Norte 13 Sudeste 0 -- -- 89
2020-03-22 23:00:00 11.8 5 Este 12 Sudeste 0 -- -- 85
2020-03-22 22:00:00 11.8 8 Sudeste 21 Sudeste 0 -- -- 91
2020-03-22 21:00:00 11.5 8 Sudeste 14 Sudeste 0 -- -- 96
2020-03-22 20:00:00 11.6 3 Sur 6 Nordeste 0 -- -- 94
2020-03-22 19:00:00 12.3 4 Sur 9 Oeste 0 -- -- 92
2020-03-22 18:00:00 12.6 6 Oeste 17 Oeste 0.2 -- -- 88
2020-03-22 17:00:00 12.3 4 Sudoeste 10 Oeste 0.8 -- -- 93
2020-03-22 16:00:00 12.6 7 Oeste 14 Oeste 0.2 -- -- 89
2020-03-22 15:00:00 12.7 6 Sudoeste 12 Oeste 0 -- -- 88
2020-03-22 14:00:00 13.2 8 Sudeste 18 Sudeste 0 -- -- 86
2020-03-22 13:00:00 13.8 12 Sudeste 23 Sudeste 0 -- -- 79
2020-03-22 12:00:00 12.5 0 Calma 6 Este 0 -- -- 81
2020-03-22 11:00:00 11.6 0 Calma 5 Sudeste 0 -- -- 80
2020-03-22 10:00:00 9.7 0 Calma 6 Noroeste 0 -- -- 85
2020-03-22 09:00:00 7.7 3 Norte 5 Noroeste 0 -- -- 95
2020-03-22 08:00:00 6.4 0 Calma 3 Sudeste 0 -- -- 99
2020-03-22 07:00:00 4.8 0 Calma 3 Oeste 0 -- -- 98
2020-03-22 06:00:00 5.1 2 Sudoeste 4 Norte 0 -- -- 98
2020-03-22 05:00:00 5.4 0 Calma 4 Norte 0 -- -- 98
2020-03-22 04:00:00 4.8 0 Calma 3 Sudoeste 0 -- -- 97
2020-03-22 03:00:00 4.8 0 Calma 5 Sudeste 0 -- -- 97
2020-03-22 02:00:00 4.4 0 Calma 4 Sudoeste 0 -- -- 95
2020-03-22 01:00:00 5.1 0 Calma 6 Noroeste 0 -- -- 93
2020-03-22 00:00:00 6 3 Oeste 8 Noroeste 0 -- -- 93
2020-03-21 23:00:00 7.2 3 Norte 10 Sudeste 0 -- -- 89
2020-03-21 22:00:00 8 6 Sudeste 8 Sudeste 0 -- -- 91
2020-03-21 21:00:00 9.7 5 Sur 10 Sudeste 0 -- -- 87
2020-03-21 20:00:00 11.4 4 Sudeste 21 Sudeste 0 -- -- 83
2020-03-21 19:00:00 12.8 13 Sudeste 27 Sudeste 0 -- -- 76
2020-03-21 18:00:00 14.6 15 Sudeste 29 Sudeste 0 -- -- 65
2020-03-21 17:00:00 16.1 15 Sudeste 28 Sudeste 0 -- -- 57
2020-03-21 16:00:00 16.6 17 Sudeste 32 Sur 0 -- -- 56
2020-03-21 15:00:00 17.6 13 Sudeste 35 Sudeste 0 -- -- 52
2020-03-21 14:00:00 17.7 13 Sudeste 28 Sudeste 0 -- -- 53
2020-03-21 13:00:00 16.6 9 Sudeste 22 Sudeste 0 -- -- 58
2020-03-21 12:00:00 16.1 10 Sudeste 17 Sudeste 0 -- -- 62
2020-03-21 11:00:00 13.2 3 Nordeste 8 Norte 0 -- -- 71
2020-03-21 10:00:00 9.1 3 Norte 6 Noroeste 0 -- -- 81
2020-03-21 09:00:00 6.5 0 Calma 3 Este 0 -- -- 99
2020-03-21 08:00:00 4.1 0 Calma 4 Norte 0 -- -- 98
2020-03-21 07:00:00 3.4 0 Calma 2 Sur 0 -- -- 98
2020-03-21 06:00:00 3.7 0 Calma -- -- 0 -- -- 97
2020-03-21 05:00:00 3.9 0 Calma -- -- 0 -- -- 97
2020-03-21 04:00:00 4.6 0 Calma 4 Sudeste 0 -- -- 96
2020-03-21 03:00:00 5.2 0 Calma 5 Noroeste 0 -- -- 96
2020-03-21 02:00:00 6.3 0 Calma 8 Sudeste 0 -- -- 95
2020-03-21 01:00:00 7.1 4 Sudeste 9 Sudeste 0 -- -- 96
2020-03-21 00:00:00 7.6 5 Sudeste 8 Sudeste 0 -- -- 95
2020-03-20 23:00:00 8.6 4 Sudeste 6 Sudeste 0 -- -- 94
2020-03-20 22:00:00 9.5 3 Sudeste 9 Sudeste 0 -- -- 90
2020-03-20 21:00:00 11 6 Sudeste 12 Sudeste 0 -- -- 90
2020-03-20 20:00:00 11.8 7 Sudeste 23 Sudeste 0 -- -- 86
2020-03-20 19:00:00 13.3 8 Sudeste 23 Sudeste 0 -- -- 80
2020-03-20 18:00:00 14.4 12 Sudeste 23 Sudeste 0 -- -- 73
2020-03-20 17:00:00 14.5 12 Sudeste 23 Sudeste 0 -- -- 67
2020-03-20 16:00:00 16.1 14 Sudeste 29 Sudeste 0 -- -- 64
2020-03-20 15:00:00 17.1 15 Sudeste 31 Sudeste 0 -- -- 62
2020-03-20 14:00:00 16.8 15 Sudeste 29 Sudeste 0 -- -- 61
2020-03-20 13:00:00 16.7 14 Sudeste 28 Sudeste 0 -- -- 59
2020-03-20 12:00:00 16.5 13 Sudeste 26 Sudeste 0 -- -- 57
2020-03-20 11:00:00 14.9 12 Este 21 Este 0 -- -- 69
2020-03-20 10:00:00 12.1 3 Norte 6 Norte 0 -- -- 86
2020-03-20 09:00:00 10.2 2 Nordeste 6 Norte 0 -- -- 94
2020-03-20 08:00:00 8.3 0 Calma 5 Nordeste 0 -- -- 98
2020-03-20 07:00:00 7.2 2 Oeste 4 Oeste 0 -- -- 98
2020-03-20 06:00:00 6.3 3 Sur 4 Sur 0 -- -- 97
2020-03-20 05:00:00 7.4 0 Calma 4 Sudoeste 0 -- -- 97
2020-03-20 04:00:00 6.6 3 Oeste 5 Noroeste 0 -- -- 97
2020-03-20 03:00:00 6.3 3 Sudoeste 5 Noroeste 0 -- -- 94
2020-03-20 02:00:00 7.6 0 Calma 10 Este 0 -- -- 92
2020-03-20 01:00:00 8.9 3 Este 10 Sudeste 0 -- -- 93
2020-03-20 00:00:00 9.5 7 Sudeste 15 Sudeste 0 -- -- 91
2020-03-19 23:00:00 10.4 9 Sudeste 16 Sudeste 0 -- -- 89
2020-03-19 22:00:00 10.7 7 Sudeste 14 Sudeste 0 -- -- 87
2020-03-19 21:00:00 11.1 8 Sudeste 14 Sudeste 0 -- -- 87
2020-03-19 20:00:00 11.1 8 Sudeste 17 Sudeste 0 -- -- 85
2020-03-19 19:00:00 12.5 9 Sudeste 23 Sudeste 0 -- -- 78
2020-03-19 18:00:00 14.3 13 Sudeste 26 Sudeste 0 -- -- 67
2020-03-19 17:00:00 15.9 14 Sudeste 26 Este 0 -- -- 60
2020-03-19 16:00:00 16.6 15 Sudeste 31 Sudeste 0 -- -- 61
2020-03-19 15:00:00 17.1 14 Sudeste 28 Sudeste 0 -- -- 59
2020-03-19 14:00:00 16.7 15 Sudeste 30 Sudeste 0 -- -- 59
2020-03-19 13:00:00 16.2 12 Sudeste 28 Sudeste 0 -- -- 63
2020-03-19 12:00:00 15.9 15 Sudeste 27 Sudeste 0 -- -- 69
2020-03-19 11:00:00 14.4 16 Sudeste 29 Sudeste 0 -- -- 72
2020-03-19 10:00:00 11.2 6 Noroeste 9 Noroeste 0 -- -- 88
2020-03-19 09:00:00 8.3 0 Calma 5 Norte 0 -- -- 98
2020-03-19 08:00:00 6.4 0 Calma 0 Calma 0 -- -- 98
2020-03-19 07:00:00 5.2 0 Calma 0 Calma 0 -- -- 98
2020-03-19 06:00:00 4.9 0 Calma 4 Norte 0 -- -- 97
2020-03-19 05:00:00 6 3 Noroeste 5 Noroeste 0 -- -- 97
2020-03-19 04:00:00 5.9 0 Calma 4 Sudeste 0 -- -- 97
2020-03-19 03:00:00 5.8 3 Sur 4 Sudeste 0 -- -- 96
2020-03-19 02:00:00 6.1 0 Calma 2 Sudoeste 0 -- -- 95
2020-03-19 01:00:00 6.7 2 Sudoeste 3 Sudoeste 0 -- -- 94
2020-03-19 00:00:00 7.4 0 Calma 3 Sur 0 -- -- 92
2020-03-18 23:00:00 8.4 0 Calma 6 Noroeste 0 -- -- 88
2020-03-18 22:00:00 8.6 0 Calma 6 Sur 0 -- -- 87
2020-03-18 21:00:00 10.2 0 Calma 12 Sur 0 -- -- 80
2020-03-18 20:00:00 11.6 9 Sudeste 12 Sudeste 0 -- -- 74
2020-03-18 19:00:00 13.6 7 Sudeste 17 Sudeste 0 -- -- 69
2020-03-18 18:00:00 15.5 12 Sudeste 23 Sudeste 0 -- -- 58
2020-03-18 17:00:00 16.6 12 Sudeste 24 Sudeste 0 -- -- 55
2020-03-18 16:00:00 18.1 13 Sudeste 22 Sudeste 0 -- -- 51
2020-03-18 15:00:00 17 14 Sudeste 23 Sudeste 0 -- -- 58
2020-03-18 14:00:00 17.6 5 Sudeste 12 Sudeste 0 -- -- 59
2020-03-18 13:00:00 16.1 3 Nordeste 6 Norte 0 -- -- 71
2020-03-18 12:00:00 14.1 0 Calma 4 Noroeste 0 -- -- 81
2020-03-18 11:00:00 11.8 2 Noroeste 5 Noroeste 0 -- -- 88
2020-03-18 10:00:00 9.9 3 Noroeste 5 Noroeste 0 -- -- 98
2020-03-18 09:00:00 9 0 Calma 3 Oeste 0 -- -- 98
2020-03-18 08:00:00 7.3 2 Oeste 5 Noroeste 0 -- -- 98
2020-03-18 07:00:00 7 0 Calma 4 Oeste 0 -- -- 97
2020-03-18 06:00:00 7.5 0 Calma 5 Oeste 0 -- -- 97
2020-03-18 05:00:00 7.9 0 Calma 2 Sudeste 0 -- -- 96
2020-03-18 04:00:00 9.3 3 Sudoeste 5 Sudoeste 0 -- -- 97
2020-03-18 03:00:00 9.2 0 Calma 4 Oeste 0 -- -- 97
2020-03-18 02:00:00 9 3 Sudeste 4 Sur 0 -- -- 96
2020-03-18 01:00:00 9.1 0 Calma 4 Sur 0 -- -- 95
2020-03-18 00:00:00 9.4 0 Calma 4 Oeste 0 -- -- 94
2020-03-17 23:00:00 9.9 0 Calma 3 Noroeste 0 -- -- 93
2020-03-17 22:00:00 10.7 3 Norte 6 Sudeste 0 -- -- 90
2020-03-17 21:00:00 11.6 0 Calma 8 Sudeste 0 -- -- 86
2020-03-17 20:00:00 13.2 6 Sudeste 16 Sur 0 -- -- 80
2020-03-17 19:00:00 14.2 9 Sur 21 Sur 0 -- -- 78
2020-03-17 18:00:00 15.2 14 Sudeste 22 Sudeste 0 -- -- 75
2020-03-17 17:00:00 16.3 9 Sudeste 25 Sudeste 0 -- -- 71
2020-03-17 16:00:00 16.2 15 Sudeste 30 Este 0 -- -- 72
2020-03-17 15:00:00 15.9 9 Sudeste 32 Sudeste 0 -- -- 76
2020-03-17 14:00:00 15.7 10 Este 24 Nordeste 0 -- -- 77
2020-03-17 13:00:00 15.7 9 Este 31 Este 0 -- -- 76
2020-03-17 12:00:00 15 15 Este 38 Este 0 -- -- 79
2020-03-17 11:00:00 14.6 14 Este 27 Este 0 -- -- 82
2020-03-17 10:00:00 14.3 13 Sudeste 27 Sudeste 0 -- -- 85
2020-03-17 09:00:00 13.8 9 Sudeste 23 Sudeste 0 -- -- 87
2020-03-17 08:00:00 13.8 9 Sudeste 20 Sudeste 0 -- -- 85
2020-03-17 07:00:00 13.1 6 Sudoeste 16 Este 0 -- -- 88
2020-03-17 06:00:00 13.2 12 Este 29 Este 0 -- -- 86
2020-03-17 05:00:00 13.3 14 Este 30 Sudeste 0 -- -- 83
2020-03-17 04:00:00 12.8 9 Sudeste 29 Este 0 -- -- 88
2020-03-17 03:00:00 13.4 12 Este 38 Este 0 -- -- 85
2020-03-17 02:00:00 13.7 17 Este 44 Este 0 -- -- 85
2020-03-17 01:00:00 14 17 Este 40 Nordeste 0 -- -- 84
2020-03-17 00:00:00 14.1 15 Este 42 Este 0 -- -- 83
2020-03-16 23:00:00 14.2 22 Este 46 Este 0 -- -- 83
2020-03-16 22:00:00 14.1 17 Este 39 Este 0 -- -- 84
2020-03-16 21:00:00 14.2 20 Este 49 Este 0 -- -- 84
2020-03-16 20:00:00 13.8 22 Este 51 Este 0 -- -- 88
2020-03-16 19:00:00 14 24 Este 55 Este 0.2 -- -- 87
2020-03-16 18:00:00 13.9 25 Este 47 Este 0 -- -- 92
2020-03-16 17:00:00 14 15 Este 36 Este 2.2 -- -- 93
2020-03-16 16:00:00 14.9 12 Este 39 Este 0 -- -- 88
2020-03-16 15:00:00 14.3 17 Este 34 Este 0.4 -- -- 93
2020-03-16 14:00:00 13.8 6 Sudeste 35 Este 1 -- -- 94
2020-03-16 13:00:00 13.8 18 Este 39 Este 0 -- -- 88
2020-03-16 12:00:00 13.9 16 Sudeste 32 Sudeste 0 -- -- 83
2020-03-16 11:00:00 13.5 9 Este 23 Este 0 -- -- 80
2020-03-16 10:00:00 13.4 13 Este 28 Este 0 -- -- 80
2020-03-16 09:00:00 12.8 12 Este 32 Sudeste 0 -- -- 79
2020-03-16 08:00:00 12.6 14 Sudeste 27 Sudeste 0.2 -- -- 88
2020-03-16 07:00:00 12.8 12 Este 25 Este 0 -- -- 88
2020-03-16 06:00:00 13.1 12 Este 25 Este 0 -- -- 85
2020-03-16 05:00:00 13 9 Sudeste 18 Este 0 -- -- 86
2020-03-16 04:00:00 13 9 Este 19 Sudeste 0 -- -- 87
2020-03-16 03:00:00 13.1 8 Sudeste 24 Sudeste 0 -- -- 90
2020-03-16 02:00:00 13.2 12 Sudeste 23 Este 0 -- -- 90
2020-03-16 01:00:00 13.1 12 Sudeste 26 Sudeste 0.4 -- -- 92
2020-03-16 00:00:00 13.5 9 Sudeste 29 Sudeste 0 -- -- 91
2020-03-15 23:00:00 13.7 13 Sudeste 29 Sudeste 0 -- -- 87
2020-03-15 22:00:00 13.6 17 Sudeste 32 Sudeste 0 -- -- 86
2020-03-15 21:00:00 13.7 15 Sudeste 35 Sudeste 0 -- -- 85
2020-03-15 20:00:00 13.8 15 Sudeste 40 Sudeste 0 -- -- 84
2020-03-15 19:00:00 14 16 Sudeste 36 Este 0 -- -- 81
2020-03-15 18:00:00 14.6 18 Sudeste 37 Este 0 -- -- 76
2020-03-15 17:00:00 15.5 19 Sudeste 42 Sudeste 0 -- -- 72
2020-03-15 16:00:00 15.4 17 Este 39 Sudeste 0 -- -- 76
2020-03-15 15:00:00 16.2 21 Este 44 Sudeste 0 -- -- 74
2020-03-15 14:00:00 17.5 22 Este 42 Este 0 -- -- 67
2020-03-15 13:00:00 17.4 17 Sudeste 36 Este 0 -- -- 69
2020-03-15 12:00:00 16.6 20 Sudeste 39 Sudeste 0 -- -- 72
2020-03-15 11:00:00 16.5 18 Sudeste 36 Sudeste 0 -- -- 71
2020-03-15 10:00:00 15.1 15 Sudeste 32 Este 0 -- -- 76
2020-03-15 09:00:00 9.4 3 Norte 5 Noroeste 0 -- -- 87
2020-03-15 08:00:00 7.4 0 Calma 5 Norte 0 -- -- 93
2020-03-15 07:00:00 7.2 0 Calma 3 Norte 0 -- -- 92
2020-03-15 06:00:00 7.7 0 Calma 4 Noroeste 0 -- -- 91
2020-03-15 05:00:00 8.8 0 Calma 4 Norte 0 -- -- 89
2020-03-15 04:00:00 9.4 0 Calma 3 Nordeste 0 -- -- 88
2020-03-15 03:00:00 9.4 0 Calma 7 Norte 0 -- -- 90
2020-03-15 02:00:00 9.3 4 Noroeste 13 Este 0 -- -- 88
2020-03-15 01:00:00 12.1 7 Sudeste 15 Sur 0 -- -- 89
2020-03-15 00:00:00 11.6 10 Sur 18 Sur 0 -- -- 93
2020-03-14 23:00:00 10.9 10 Sur 15 Sur 0 -- -- 92
2020-03-14 22:00:00 11.5 8 Sudeste 15 Sudeste 0 -- -- 84
2020-03-14 21:00:00 12.3 11 Sur 19 Sudeste 0 -- -- 79
2020-03-14 20:00:00 13.2 11 Sudeste 18 Sur 0 -- -- 75
2020-03-14 19:00:00 15.3 11 Sudeste 23 Este 0 -- -- 66
2020-03-14 18:00:00 18.7 12 Sudeste 21 Sudeste 0 -- -- 53
2020-03-14 17:00:00 20.4 11 Norte 21 Noroeste 0 -- -- 29
2020-03-14 16:00:00 20.5 13 Noroeste 25 Noroeste 0 -- -- 31
2020-03-14 15:00:00 20 13 Noroeste 27 Noroeste 0 -- -- 32
2020-03-14 14:00:00 19.4 14 Noroeste 26 Noroeste 0 -- -- 36
2020-03-14 13:00:00 17.9 16 Norte 24 Norte 0 -- -- 41
2020-03-14 12:00:00 16.7 13 Noroeste 29 Noroeste 0 -- -- 43
2020-03-14 11:00:00 15.3 17 Noroeste 35 Noroeste 0 -- -- 47
2020-03-14 10:00:00 13.9 15 Noroeste 31 Noroeste 0 -- -- 55
2020-03-14 09:00:00 12.4 15 Noroeste 27 Noroeste 0 -- -- 62
2020-03-14 08:00:00 10 12 Norte 21 Norte 0 -- -- 71
2020-03-14 07:00:00 10.2 9 Norte 22 Oeste 0 -- -- 69
2020-03-14 06:00:00 11 8 Noroeste 26 Oeste 0 -- -- 67
2020-03-14 05:00:00 11.8 10 Noroeste 24 Oeste 0 -- -- 66
2020-03-14 04:00:00 12.6 15 Oeste 28 Oeste 0 -- -- 64
2020-03-14 03:00:00 13 7 Oeste 21 Noroeste 0 -- -- 65
2020-03-14 02:00:00 13 8 Oeste 18 Noroeste 0 -- -- 67
2020-03-14 01:00:00 13.4 5 Noroeste 17 Oeste 0 -- -- 69
2020-03-14 00:00:00 13.4 5 Oeste 13 Oeste 0 -- -- 74
2020-03-13 23:00:00 13.9 3 Sudeste 13 Sudoeste 0 -- -- 77
2020-03-13 22:00:00 13.4 5 Oeste 10 Sudoeste 0 -- -- 78
2020-03-13 21:00:00 13.6 2 Sudeste 6 Sudoeste 0 -- -- 81
2020-03-13 20:00:00 14.4 0 Calma 5 Oeste 0 -- -- 79
2020-03-13 19:00:00 15.5 3 Oeste 11 Este 0 -- -- 75
2020-03-13 18:00:00 17 2 Este 23 Este 0 -- -- 67
2020-03-13 17:00:00 18.2 9 Sudeste 28 Sudeste 0 -- -- 63
2020-03-13 16:00:00 18.5 13 Sudeste 28 Sudeste 0 -- -- 60
2020-03-13 15:00:00 19 9 Este 23 Este 0 -- -- 58
2020-03-13 14:00:00 18.3 2 Noroeste 8 Noroeste 0 -- -- 60
2020-03-13 13:00:00 17.9 2 Oeste 12 Norte 0 -- -- 61
2020-03-13 12:00:00 17.4 6 Norte 17 Norte 0 -- -- 63
2020-03-13 11:00:00 16.5 6 Noroeste 13 Noroeste 0 -- -- 66
2020-03-13 10:00:00 14 5 Norte 10 Norte 0 -- -- 75
2020-03-13 09:00:00 11.7 6 Noroeste 11 Oeste 0 -- -- 86
2020-03-13 08:00:00 9.2 5 Oeste 8 Oeste 0 -- -- 96
2020-03-13 07:00:00 9 4 Noroeste 8 Oeste 0 -- -- 97
2020-03-13 06:00:00 8.9 5 Noroeste 9 Noroeste 0 -- -- 97
2020-03-13 05:00:00 8.8 4 Oeste 9 Noroeste 0 -- -- 97
2020-03-13 04:00:00 9 4 Noroeste 9 Nordeste 0 -- -- 97
2020-03-13 03:00:00 8.9 2 Noroeste 8 Oeste 0 -- -- 95
2020-03-13 02:00:00 9 0 Calma 6 Sur 0 -- -- 93
2020-03-13 01:00:00 10.2 5 Sur 8 Sudeste 0 -- -- 93
2020-03-13 00:00:00 11.3 0 Calma 12 Oeste 0 -- -- 88
2020-03-12 23:00:00 12.6 7 Sur 12 Sudoeste 0 -- -- 79
2020-03-12 22:00:00 14.1 8 Sur 15 Sudeste 0 -- -- 73
2020-03-12 21:00:00 13.8 8 Sudeste 20 Sudeste 0 -- -- 78
2020-03-12 20:00:00 14 11 Sudeste 20 Sur 0 -- -- 80
2020-03-12 19:00:00 15.6 14 Sudeste 26 Sudeste 0 -- -- 65
2020-03-12 18:00:00 17.7 17 Sudeste 28 Sudeste 0 -- -- 61
2020-03-12 17:00:00 19.3 17 Sudeste 32 Sudeste 0 -- -- 59
2020-03-12 16:00:00 20.1 17 Sudeste 32 Sudeste 0 -- -- 58
2020-03-12 15:00:00 21.6 19 Sudeste 30 Sudeste 0 -- -- 52
2020-03-12 14:00:00 22.8 15 Sudeste 24 Sudeste 0 -- -- 46
2020-03-12 13:00:00 21.9 12 Sudeste 22 Sudeste 0 -- -- 47
2020-03-12 12:00:00 20.2 13 Sudeste 22 Sudeste 0 -- -- 54
2020-03-12 11:00:00 18.8 10 Sudeste 22 Sudeste 0 -- -- 55
2020-03-12 10:00:00 15.5 6 Este 14 Sudeste 0 -- -- 73
2020-03-12 09:00:00 9.7 4 Este 6 Este 0 -- -- 98
2020-03-12 08:00:00 6.2 0 Calma 5 Sudeste 0 -- -- 98
2020-03-12 07:00:00 5.5 0 Calma 3 Sudoeste 0 -- -- 96
2020-03-12 06:00:00 5.9 3 Oeste 3 Sudoeste 0 -- -- 96
2020-03-12 05:00:00 6.6 0 Calma 5 Sudeste 0 -- -- 96
2020-03-12 04:00:00 6.9 0 Calma 4 Sudeste 0 -- -- 95
2020-03-12 03:00:00 7.5 0 Calma 4 Noroeste 0 -- -- 95
2020-03-12 02:00:00 7.8 0 Calma 4 Noroeste 0 -- -- 93
2020-03-12 01:00:00 8.6 0 Calma 4 Nordeste 0 -- -- 91
2020-03-12 00:00:00 10.3 3 Sur 9 Sudoeste 0 -- -- 86
2020-03-11 23:00:00 12.4 7 Sur 13 Sur 0 -- -- 82
2020-03-11 22:00:00 12.9 9 Sur 14 Sur 0 -- -- 85
2020-03-11 21:00:00 13.8 11 Sudeste 18 Sudeste 0 -- -- 85
2020-03-11 20:00:00 14.4 12 Sudeste 22 Sudeste 0 -- -- 84
2020-03-11 19:00:00 16 13 Sudeste 28 Sudeste 0 -- -- 77
2020-03-11 18:00:00 19.9 16 Sudeste 27 Sudeste 0 -- -- 67
2020-03-11 17:00:00 22.2 18 Sudeste 26 Sudeste 0 -- -- 58
2020-03-11 16:00:00 23.7 14 Sudeste 26 Sudeste 0 -- -- 51
2020-03-11 15:00:00 25.1 6 Noroeste 17 Noroeste 0 -- -- 39
2020-03-11 14:00:00 23.8 5 Norte 12 Norte 0 -- -- 40
2020-03-11 13:00:00 22 4 Norte 15 Norte 0 -- -- 44
2020-03-11 12:00:00 19.6 8 Norte 17 Norte 0 -- -- 48
2020-03-11 11:00:00 18 7 Norte 14 Norte 0 -- -- 50
2020-03-11 10:00:00 15 4 Oeste 13 Oeste 0 -- -- 56
2020-03-11 09:00:00 11.9 8 Oeste 17 Noroeste 0 -- -- 66
2020-03-11 08:00:00 8.2 6 Noroeste 10 Noroeste 0 -- -- 85
2020-03-11 07:00:00 8.3 7 Oeste 11 Oeste 0 -- -- 81
2020-03-11 06:00:00 8.1 6 Noroeste 9 Oeste 0 -- -- 86
2020-03-11 05:00:00 7.9 7 Oeste 10 Oeste 0 -- -- 89
2020-03-11 04:00:00 8.1 5 Noroeste 9 Oeste 0 -- -- 90
2020-03-11 03:00:00 7.6 4 Oeste 8 Noroeste 0 -- -- 94
2020-03-11 02:00:00 8.5 3 Noroeste 7 Noroeste 0 -- -- 94
2020-03-11 01:00:00 8.2 2 Oeste 6 Sudoeste 0 -- -- 92
2020-03-11 00:00:00 9.6 0 Calma 10 Noroeste 0 -- -- 86
2020-03-10 23:00:00 12.2 3 Oeste 14 Sur 0 -- -- 80
2020-03-10 22:00:00 12.5 6 Sur 15 Sur 0 -- -- 78
2020-03-10 21:00:00 13.1 0 Calma 16 Sur 0 -- -- 74
2020-03-10 20:00:00 14.2 11 Sur 23 Sudeste 0 -- -- 75
2020-03-10 19:00:00 15.2 10 Sudeste 22 Sudeste 0 -- -- 70
2020-03-10 18:00:00 17 14 Sudeste 26 Sudeste 0 -- -- 63
2020-03-10 17:00:00 19.2 16 Sudeste 25 Sudeste 0 -- -- 56
2020-03-10 16:00:00 21.9 10 Oeste 28 Noroeste 0 -- -- 31
2020-03-10 15:00:00 20.6 15 Noroeste 30 Noroeste 0 -- -- 35
2020-03-10 14:00:00 19.5 18 Noroeste 35 Noroeste 0 -- -- 32
2020-03-10 13:00:00 19.2 22 Noroeste 41 Oeste 0 -- -- 29
2020-03-10 12:00:00 18.8 15 Oeste 27 Oeste 0 -- -- 31
2020-03-10 11:00:00 13.7 12 Norte 22 Noroeste 0 -- -- 54
2020-03-10 10:00:00 12.1 11 Norte 23 Noroeste 0 -- -- 59
2020-03-10 09:00:00 10.5 13 Noroeste 22 Norte 0 -- -- 63
2020-03-10 08:00:00 9.1 11 Noroeste 20 Noroeste 0 -- -- 67
2020-03-10 07:00:00 9.6 16 Noroeste 25 Noroeste 0 -- -- 63
2020-03-10 06:00:00 9.9 15 Noroeste 27 Noroeste 0 -- -- 63
2020-03-10 05:00:00 11.2 15 Noroeste 29 Noroeste 0 -- -- 57
2020-03-10 04:00:00 11.1 17 Noroeste 36 Oeste 0 -- -- 58
2020-03-10 03:00:00 11.1 22 Oeste 43 Oeste 0 -- -- 60
2020-03-10 02:00:00 11.1 23 Oeste 43 Oeste 0 -- -- 61
2020-03-10 01:00:00 11.1 18 Oeste 41 Sudoeste 0 -- -- 60
2020-03-10 00:00:00 11.1 11 Oeste 42 Oeste 0 -- -- 60
2020-03-09 23:00:00 11.5 15 Oeste 38 Oeste 0 -- -- 59
2020-03-09 22:00:00 12.2 19 Oeste 44 Oeste 0 -- -- 56
2020-03-09 21:00:00 12.7 19 Oeste 46 Oeste 0 -- -- 54
2020-03-09 20:00:00 13.5 23 Noroeste 47 Noroeste 0 -- -- 52
2020-03-09 19:00:00 14.4 27 Noroeste 55 Noroeste 0 -- -- 47
2020-03-09 18:00:00 15.4 20 Noroeste 62 Oeste 0 -- -- 45
2020-03-09 17:00:00 16.4 35 Noroeste 73 Oeste 0 -- -- 42
2020-03-09 16:00:00 17.2 28 Oeste 63 Oeste 0 -- -- 38
2020-03-09 15:00:00 17.1 23 Noroeste 67 Oeste 0 -- -- 40
2020-03-09 14:00:00 16.6 26 Oeste 60 Noroeste 0 -- -- 45
2020-03-09 13:00:00 16.4 29 Noroeste 70 Oeste 0 -- -- 44
2020-03-09 12:00:00 14.6 38 Noroeste 68 Oeste 0 -- -- 48
2020-03-09 11:00:00 14.1 31 Oeste 70 Oeste 0 -- -- 49
2020-03-09 10:00:00 13.7 33 Oeste 69 Oeste 0 -- -- 50
2020-03-09 09:00:00 12.8 31 Oeste 65 Oeste 0 -- -- 53
2020-03-09 08:00:00 12 29 Oeste 72 Oeste 0 -- -- 58
2020-03-09 07:00:00 11.9 25 Oeste 54 Noroeste 0 -- -- 62
2020-03-09 06:00:00 12.2 26 Oeste 51 Oeste 0 -- -- 61
2020-03-09 05:00:00 12.7 22 Oeste 48 Oeste 0 -- -- 61
2020-03-09 04:00:00 12.8 19 Oeste 43 Oeste 0 -- -- 64
2020-03-09 03:00:00 13.7 17 Oeste 37 Sudoeste 0 -- -- 62
2020-03-09 02:00:00 8.6 10 Noroeste 28 Oeste 0 -- -- 74
2020-03-09 01:00:00 8.7 8 Oeste 23 Oeste 0 -- -- 76
2020-03-09 00:00:00 7.4 6 Sudoeste 9 Sudoeste 0 -- -- 79
2020-03-08 23:00:00 8.2 4 Oeste 8 Noroeste 0 -- -- 76
2020-03-08 22:00:00 10.3 5 Sudeste 13 Sudoeste 0 -- -- 67
2020-03-08 21:00:00 12.4 9 Sudoeste 15 Oeste 0 -- -- 59
2020-03-08 20:00:00 14.8 5 Sur 13 Oeste 0 -- -- 53
2020-03-08 19:00:00 17.3 6 Noroeste 15 Noroeste 0 -- -- 40
2020-03-08 18:00:00 18.5 7 Noroeste 20 Oeste 0 -- -- 38
2020-03-08 17:00:00 19.3 9 Noroeste 25 Noroeste 0 -- -- 35
2020-03-08 16:00:00 20 19 Noroeste 32 Noroeste 0 -- -- 31
2020-03-08 15:00:00 19.6 20 Noroeste 35 Noroeste 0 -- -- 36
2020-03-08 14:00:00 19.8 13 Noroeste 34 Noroeste 0 -- -- 40
2020-03-08 13:00:00 18.5 20 Noroeste 36 Noroeste 0 -- -- 42
2020-03-08 12:00:00 17.5 19 Oeste 37 Oeste 0 -- -- 44
2020-03-08 11:00:00 14.8 14 Noroeste 24 Norte 0 -- -- 56
2020-03-08 10:00:00 12.2 13 Noroeste 21 Noroeste 0 -- -- 63
2020-03-08 09:00:00 9.5 11 Noroeste 16 Noroeste 0 -- -- 72
2020-03-08 08:00:00 6.4 3 Oeste 10 Oeste 0 -- -- 84
2020-03-08 07:00:00 6.2 4 Oeste 12 Noroeste 0 -- -- 83
2020-03-08 06:00:00 7.9 6 Noroeste 14 Oeste 0 -- -- 77
2020-03-08 05:00:00 6.9 0 Calma 6 Este 0 -- -- 79
2020-03-08 04:00:00 9.6 2 Norte 19 Noroeste 0 -- -- 68
2020-03-08 03:00:00 11.2 8 Noroeste 19 Noroeste 0 -- -- 62
2020-03-08 02:00:00 11.8 5 Noroeste 26 Oeste 0 -- -- 61
2020-03-08 01:00:00 12.6 10 Oeste 27 Oeste 0 -- -- 59
2020-03-08 00:00:00 12.2 8 Noroeste 27 Sudoeste 0 -- -- 62
2020-03-07 23:00:00 12.6 14 Oeste 44 Oeste 0 -- -- 62
2020-03-07 22:00:00 13.3 24 Oeste 49 Noroeste 0 -- -- 60
2020-03-07 21:00:00 13.8 19 Oeste 48 Oeste 0 -- -- 60
2020-03-07 20:00:00 14.8 20 Oeste 43 Oeste 0 -- -- 56
2020-03-07 19:00:00 15.4 15 Oeste 42 Oeste 0 -- -- 53
2020-03-07 18:00:00 16.2 16 Oeste 45 Oeste 0 -- -- 52
2020-03-07 17:00:00 17.8 21 Oeste 48 Oeste 0 -- -- 47
2020-03-07 16:00:00 18.1 21 Oeste 53 Noroeste 0 -- -- 44
2020-03-07 15:00:00 17.4 17 Oeste 40 Oeste 0 -- -- 48
2020-03-07 14:00:00 15.7 15 Oeste 41 Oeste 0 -- -- 50
2020-03-07 13:00:00 14.7 17 Noroeste 48 Noroeste 0 -- -- 53
2020-03-07 12:00:00 12.9 16 Noroeste 32 Norte 0 -- -- 57
2020-03-07 11:00:00 12 17 Noroeste 41 Noroeste 0 -- -- 59
2020-03-07 10:00:00 10.9 21 Oeste 43 Noroeste 0 -- -- 61
2020-03-07 09:00:00 9 17 Oeste 42 Oeste 0 -- -- 65
2020-03-07 08:00:00 8.1 14 Noroeste 31 Noroeste 0 -- -- 66
2020-03-07 07:00:00 7.6 14 Noroeste 44 Oeste 0 -- -- 69
2020-03-07 06:00:00 7.5 18 Noroeste 49 Norte 0 -- -- 69
2020-03-07 05:00:00 7.3 21 Oeste 47 Oeste 0 -- -- 70
2020-03-07 04:00:00 7.3 22 Oeste 52 Oeste 0 -- -- 69
2020-03-07 03:00:00 7.4 26 Oeste 53 Oeste 0 -- -- 66
2020-03-07 02:00:00 7.6 21 Oeste 56 Noroeste 0 -- -- 67
2020-03-07 01:00:00 7.6 25 Oeste 56 Oeste 0 -- -- 67
2020-03-07 00:00:00 7.7 24 Oeste 53 Oeste 0 -- -- 66
2020-03-06 23:00:00 8 24 Oeste 57 Noroeste 0 -- -- 65
2020-03-06 22:00:00 8.4 29 Noroeste 74 Noroeste 0 -- -- 63
2020-03-06 21:00:00 8.8 28 Oeste 82 Oeste 0 -- -- 60
2020-03-06 20:00:00 9.2 32 Oeste 66 Sudoeste 0 -- -- 56
2020-03-06 19:00:00 10.2 34 Oeste 71 Oeste 0 -- -- 49
2020-03-06 18:00:00 11.5 35 Noroeste 67 Noroeste 0 -- -- 47
2020-03-06 17:00:00 12.8 27 Noroeste 69 Noroeste 0 -- -- 44
2020-03-06 16:00:00 13.1 34 Noroeste 68 Noroeste 0 -- -- 41
2020-03-06 15:00:00 13.3 25 Oeste 71 Oeste 0 -- -- 40
2020-03-06 14:00:00 13.5 36 Oeste 73 Oeste 0 -- -- 42
2020-03-06 13:00:00 13.1 31 Oeste 60 Oeste 0 -- -- 51
2020-03-06 12:00:00 12 24 Oeste 58 Oeste 0 -- -- 54
2020-03-06 11:00:00 12.7 28 Noroeste 59 Noroeste 0 -- -- 53
2020-03-06 10:00:00 11.7 21 Noroeste 46 Noroeste 0 -- -- 58
2020-03-06 09:00:00 10.9 15 Oeste 34 Oeste 0 -- -- 60
2020-03-06 08:00:00 8.1 5 Noroeste 22 Oeste 0 -- -- 69
2020-03-06 07:00:00 8.7 8 Noroeste 15 Noroeste 0 -- -- 66
2020-03-06 06:00:00 9.8 5 Norte 27 Oeste 0 -- -- 63
2020-03-06 05:00:00 10.5 11 Oeste 30 Oeste 0 -- -- 58
2020-03-06 04:00:00 10.4 13 Oeste 26 Noroeste 0 -- -- 58
2020-03-06 03:00:00 10 10 Oeste 42 Oeste 0 -- -- 59
2020-03-06 02:00:00 10.7 14 Oeste 48 Noroeste 0 -- -- 56
2020-03-06 01:00:00 11.2 23 Oeste 54 Oeste 0 -- -- 53
2020-03-06 00:00:00 12 22 Oeste 50 Sudoeste 0 -- -- 49
2020-03-05 23:00:00 12.8 17 Oeste 45 Oeste 0 -- -- 51
2020-03-05 22:00:00 13.8 18 Oeste 55 Oeste 0 -- -- 51
2020-03-05 21:00:00 14.4 14 Noroeste 37 Noroeste 0 -- -- 55
2020-03-05 20:00:00 15.2 23 Noroeste 43 Noroeste 0 -- -- 51
2020-03-05 19:00:00 16.6 20 Noroeste 42 Noroeste 0 -- -- 47
2020-03-05 18:00:00 17.6 22 Noroeste 53 Noroeste 0 -- -- 46
2020-03-05 17:00:00 19.6 24 Oeste 60 Oeste 0.2 -- -- 35
2020-03-05 16:00:00 18.3 13 Oeste 50 Oeste 0 -- -- 42
2020-03-05 15:00:00 16.2 24 Oeste 66 Oeste 0 -- -- 69
2020-03-05 14:00:00 21.1 9 Oeste 35 Oeste 0 -- -- 47
2020-03-05 13:00:00 22.2 14 Oeste 30 Oeste 0 -- -- 44
2020-03-05 12:00:00 21.4 11 Oeste 28 Noroeste 0 -- -- 47
2020-03-05 11:00:00 16.1 7 Noroeste 10 Noroeste 0 -- -- 67
2020-03-05 10:00:00 14 0 Calma 8 Nordeste 0 -- -- 73
2020-03-05 09:00:00 12.2 0 Calma 9 Oeste 0 -- -- 75
2020-03-05 08:00:00 9.1 2 Noroeste 7 Noroeste 0 -- -- 86
2020-03-05 07:00:00 8.4 4 Sudoeste 7 Oeste 0 -- -- 86
2020-03-05 06:00:00 8.7 4 Sudeste 7 Sudoeste 0 -- -- 83
2020-03-05 05:00:00 10.2 4 Oeste 8 Oeste 0 -- -- 78
2020-03-05 04:00:00 11.5 6 Oeste 11 Oeste 0 -- -- 72
2020-03-05 03:00:00 11.5 2 Oeste 8 Oeste 0 -- -- 71
2020-03-05 02:00:00 14.4 5 Noroeste 14 Norte 0 -- -- 61
2020-03-05 01:00:00 15.9 5 Noroeste 22 Noroeste 0 -- -- 54
2020-03-05 00:00:00 17.7 6 Noroeste 30 Oeste 0 -- -- 49
2020-03-04 23:00:00 18.2 13 Oeste 32 Sudoeste 0 -- -- 49
2020-03-04 22:00:00 17.7 9 Sudoeste 17 Oeste 0 -- -- 52
2020-03-04 21:00:00 14.6 6 Sudoeste 12 Oeste 0 -- -- 69
2020-03-04 20:00:00 16.5 5 Sudeste 12 Oeste 0 -- -- 64
2020-03-04 19:00:00 19.7 10 Oeste 28 Oeste 0 -- -- 54
2020-03-04 18:00:00 21 13 Oeste 30 Oeste 0 -- -- 50
2020-03-04 17:00:00 21.7 10 Noroeste 41 Noroeste 0 -- -- 51
2020-03-04 16:00:00 21.1 20 Oeste 41 Oeste 0 -- -- 51
2020-03-04 15:00:00 21.4 19 Oeste 34 Oeste 0 -- -- 51
2020-03-04 14:00:00 20.6 18 Oeste 36 Oeste 0 -- -- 55
2020-03-04 13:00:00 20.1 18 Oeste 36 Oeste 0 -- -- 57
2020-03-04 12:00:00 18.1 9 Norte 23 Oeste 0 -- -- 61
2020-03-04 11:00:00 15.9 9 Norte 14 Norte 0 -- -- 62
2020-03-04 10:00:00 12.4 9 Noroeste 17 Noroeste 0 -- -- 70
2020-03-04 09:00:00 12.8 8 Noroeste 25 Oeste 0 -- -- 66
2020-03-04 08:00:00 12.3 9 Noroeste 21 Oeste 0 -- -- 65
2020-03-04 07:00:00 12.1 9 Noroeste 28 Noroeste 0 -- -- 66
2020-03-04 06:00:00 12.4 15 Noroeste 30 Noroeste 0 -- -- 63
2020-03-04 05:00:00 12.7 13 Noroeste 40 Oeste 0 -- -- 62
2020-03-04 04:00:00 13 22 Oeste 44 Oeste 0 -- -- 60
2020-03-04 03:00:00 13 24 Oeste 50 Oeste 0 -- -- 60
2020-03-04 02:00:00 13 23 Oeste 49 Noroeste 0 -- -- 59
2020-03-04 01:00:00 13.4 21 Oeste 49 Oeste 0 -- -- 57
2020-03-04 00:00:00 14.1 23 Oeste 59 Oeste 0 -- -- 54
2020-03-03 23:00:00 14.6 29 Oeste 63 Oeste 0 -- -- 50
2020-03-03 22:00:00 15.7 32 Oeste 59 Noroeste 0 -- -- 44
2020-03-03 21:00:00 16.2 33 Oeste 66 Oeste 0 -- -- 43
2020-03-03 20:00:00 16.7 30 Oeste 64 Noroeste 0 -- -- 45
2020-03-03 19:00:00 17.4 31 Noroeste 66 Noroeste 0 -- -- 51
2020-03-03 18:00:00 18.8 22 Noroeste 49 Noroeste 0 -- -- 51
2020-03-03 17:00:00 19.3 22 Noroeste 60 Oeste 0 -- -- 51
2020-03-03 16:00:00 17.6 13 Noroeste 28 Oeste 0 -- -- 56
2020-03-03 15:00:00 15.4 9 Norte 15 Noroeste 0 -- -- 61
2020-03-03 14:00:00 14.6 7 Norte 18 Norte 0 -- -- 61
2020-03-03 13:00:00 12.8 7 Norte 21 Norte 0 -- -- 67
2020-03-03 12:00:00 11.9 11 Norte 24 Sudoeste 0 -- -- 67
2020-03-03 11:00:00 12.4 8 Oeste 30 Oeste 0 -- -- 60
2020-03-03 10:00:00 11 10 Oeste 20 Oeste 0 -- -- 58
2020-03-03 09:00:00 7.2 9 Noroeste 13 Noroeste 0 -- -- 67
2020-03-03 08:00:00 6.4 5 Noroeste 21 Noroeste 0 -- -- 67
2020-03-03 07:00:00 8.5 8 Noroeste 44 Oeste 0 -- -- 58
2020-03-03 06:00:00 8.4 20 Oeste 44 Oeste 0 -- -- 57
2020-03-03 05:00:00 8.3 18 Oeste 38 Oeste 0 -- -- 55
2020-03-03 04:00:00 8.5 18 Oeste 46 Sudoeste 0 -- -- 55
2020-03-03 03:00:00 8.4 22 Oeste 46 Oeste 0 -- -- 57
2020-03-03 02:00:00 8.8 27 Oeste 51 Oeste 0 -- -- 56
2020-03-03 01:00:00 8.7 23 Oeste 53 Oeste 0 -- -- 57
2020-03-03 00:00:00 9.2 28 Oeste 60 Noroeste 0 -- -- 52
2020-03-02 23:00:00 9 19 Oeste 60 Noroeste 0 -- -- 55
2020-03-02 22:00:00 9.9 30 Oeste 62 Noroeste 0 -- -- 51
2020-03-02 21:00:00 10.6 29 Oeste 55 Oeste 0 -- -- 46
2020-03-02 20:00:00 11 23 Oeste 50 Oeste 0 -- -- 52
2020-03-02 19:00:00 12.2 28 Oeste 72 Oeste 0 -- -- 47
2020-03-02 18:00:00 12.9 18 Oeste 50 Oeste 0 -- -- 45
2020-03-02 17:00:00 14.2 23 Oeste 46 Oeste 0 -- -- 46
2020-03-02 16:00:00 13.5 24 Oeste 57 Oeste 0 -- -- 47
2020-03-02 15:00:00 13.2 30 Oeste 71 Noroeste 0 -- -- 49
2020-03-02 14:00:00 14.9 29 Oeste 64 Oeste 0 -- -- 46
2020-03-02 13:00:00 13.7 34 Oeste 80 Oeste 0 -- -- 53
2020-03-02 12:00:00 14 35 Oeste 67 Sudoeste 0 -- -- 52
2020-03-02 11:00:00 13.2 28 Oeste 70 Oeste 0 -- -- 62
2020-03-02 10:00:00 13.5 17 Noroeste 39 Oeste 0.2 -- -- 69
2020-03-02 09:00:00 12.9 18 Oeste 85 Noroeste 1.2 -- -- 79
2020-03-02 08:00:00 12 4 Nordeste 19 Sur 0 -- -- 79
2020-03-02 07:00:00 12.3 4 Sudeste 13 Oeste 0 -- -- 79
2020-03-02 06:00:00 13.3 0 Calma 10 Sur 0 -- -- 74
2020-03-02 05:00:00 15 5 Norte 30 Sur 0 -- -- 66
2020-03-02 04:00:00 15.8 19 Sur 39 Sur 0 -- -- 62
2020-03-02 03:00:00 16.3 21 Sur 40 Sur 0 -- -- 59
2020-03-02 02:00:00 16.9 26 Sur 49 Sur 0 -- -- 56
2020-03-02 01:00:00 16.9 22 Sur 43 Sur 0 -- -- 55
2020-03-02 00:00:00 11.2 3 Noroeste 13 Oeste 0 -- -- 70